sensor_id;sensor_type;location;lat;lon;timestamp;temperature;humidity
78463;SHT31;67756;51.982;5.648;2024-03-23T00:54:16;12.1;66.7
78463;SHT31;67756;51.982;5.648;2024-03-23T00:56:45;12.1;67.5
78463;SHT31;67756;51.982;5.648;2024-03-23T00:59:13;12.0;67.6
78463;SHT31;67756;51.982;5.648;2024-03-23T01:01:42;12.0;67.5
78463;SHT31;67756;51.982;5.648;2024-03-23T01:04:11;12.0;67.3
78463;SHT31;67756;51.982;5.648;2024-03-23T01:06:39;12.0;67.2
78463;SHT31;67756;51.982;5.648;2024-03-23T01:09:08;12.0;67.5
78463;SHT31;67756;51.982;5.648;2024-03-23T01:11:37;12.0;67.6
78463;SHT31;67756;51.982;5.648;2024-03-23T01:14:06;12.0;67.7
78463;SHT31;67756;51.982;5.648;2024-03-23T01:16:35;11.9;67.5
78463;SHT31;67756;51.982;5.648;2024-03-23T01:19:03;11.9;67.3
78463;SHT31;67756;51.982;5.648;2024-03-23T01:21:32;11.9;67.5
78463;SHT31;67756;51.982;5.648;2024-03-23T01:24:01;12.0;67.1
78463;SHT31;67756;51.982;5.648;2024-03-23T01:26:30;12.0;68.2
78463;SHT31;67756;51.982;5.648;2024-03-23T01:28:58;12.0;67.8
78463;SHT31;67756;51.982;5.648;2024-03-23T01:31:27;12.0;67.8
78463;SHT31;67756;51.982;5.648;2024-03-23T01:33:55;12.0;67.3
78463;SHT31;67756;51.982;5.648;2024-03-23T01:36:25;12.0;67.5
78463;SHT31;67756;51.982;5.648;2024-03-23T01:38:53;12.0;67.0
78463;SHT31;67756;51.982;5.648;2024-03-23T01:41:24;12.0;67.6
78463;SHT31;67756;51.982;5.648;2024-03-23T01:43:53;12.0;67.9
78463;SHT31;67756;51.982;5.648;2024-03-23T01:46:23;12.0;67.9
78463;SHT31;67756;51.982;5.648;2024-03-23T01:48:53;12.0;67.7
78463;SHT31;67756;51.982;5.648;2024-03-23T01:51:22;12.0;68.2
78463;SHT31;67756;51.982;5.648;2024-03-23T01:53:53;12.0;68.1
78463;SHT31;67756;51.982;5.648;2024-03-23T01:56:23;12.0;68.7
78463;SHT31;67756;51.982;5.648;2024-03-23T01:58:51;12.0;68.1
78463;SHT31;67756;51.982;5.648;2024-03-23T02:01:20;12.0;67.9
78463;SHT31;67756;51.982;5.648;2024-03-23T02:03:48;12.0;68.0
78463;SHT31;67756;51.982;5.648;2024-03-23T02:06:17;12.0;67.8
78463;SHT31;67756;51.982;5.648;2024-03-23T02:08:46;12.0;67.8
78463;SHT31;67756;51.982;5.648;2024-03-23T02:11:14;12.1;68.0
78463;SHT31;67756;51.982;5.648;2024-03-23T02:13:43;12.1;68.5
78463;SHT31;67756;51.982;5.648;2024-03-23T02:16:12;12.1;68.0
78463;SHT31;67756;51.982;5.648;2024-03-23T02:18:42;12.1;67.3
78463;SHT31;67756;51.982;5.648;2024-03-23T02:21:12;12.1;67.1
78463;SHT31;67756;51.982;5.648;2024-03-23T02:23:41;12.2;66.4
78463;SHT31;67756;51.982;5.648;2024-03-23T02:26:09;12.2;66.2
78463;SHT31;67756;51.982;5.648;2024-03-23T02:28:37;12.2;66.1
78463;SHT31;67756;51.982;5.648;2024-03-23T02:31:06;12.2;65.5
78463;SHT31;67756;51.982;5.648;2024-03-23T02:33:34;12.1;65.5
78463;SHT31;67756;51.982;5.648;2024-03-23T02:36:06;12.1;65.4
78463;SHT31;67756;51.982;5.648;2024-03-23T02:38:35;12.1;65.7
78463;SHT31;67756;51.982;5.648;2024-03-23T02:41:04;12.0;65.7
78463;SHT31;67756;51.982;5.648;2024-03-23T02:43:33;12.0;65.6
78463;SHT31;67756;51.982;5.648;2024-03-23T02:46:01;11.9;65.4
78463;SHT31;67756;51.982;5.648;2024-03-23T02:48:30;11.9;65.6
78463;SHT31;67756;51.982;5.648;2024-03-23T02:50:59;11.8;66.3
78463;SHT31;67756;51.982;5.648;2024-03-23T02:53:28;11.7;66.0
78463;SHT31;67756;51.982;5.648;2024-03-23T02:55:57;11.7;65.5
78463;SHT31;67756;51.982;5.648;2024-03-23T02:58:26;11.6;66.0
78463;SHT31;67756;51.982;5.648;2024-03-23T03:00:54;11.6;65.7
78463;SHT31;67756;51.982;5.648;2024-03-23T03:03:23;11.6;65.7
78463;SHT31;67756;51.982;5.648;2024-03-23T03:05:56;11.5;66.0
78463;SHT31;67756;51.982;5.648;2024-03-23T03:08:26;11.5;65.5
78463;SHT31;67756;51.982;5.648;2024-03-23T03:10:55;11.5;65.1
78463;SHT31;67756;51.982;5.648;2024-03-23T03:13:24;11.5;65.2
78463;SHT31;67756;51.982;5.648;2024-03-23T03:15:52;11.5;65.5
78463;SHT31;67756;51.982;5.648;2024-03-23T03:18:21;11.4;65.4
78463;SHT31;67756;51.982;5.648;2024-03-23T03:20:49;11.4;65.3
78463;SHT31;67756;51.982;5.648;2024-03-23T03:23:18;11.4;65.7
78463;SHT31;67756;51.982;5.648;2024-03-23T03:25:46;11.4;65.9
78463;SHT31;67756;51.982;5.648;2024-03-23T03:28:16;11.3;66.3
78463;SHT31;67756;51.982;5.648;2024-03-23T03:30:45;11.3;65.9
78463;SHT31;67756;51.982;5.648;2024-03-23T03:33:13;11.3;65.7
78463;SHT31;67756;51.982;5.648;2024-03-23T03:35:44;11.2;65.9
78463;SHT31;67756;51.982;5.648;2024-03-23T03:38:14;11.2;66.0
78463;SHT31;67756;51.982;5.648;2024-03-23T03:40:45;11.1;65.5
78463;SHT31;67756;51.982;5.648;2024-03-23T03:43:14;11.1;65.6
78463;SHT31;67756;51.982;5.648;2024-03-23T03:45:53;11.1;66.0
78463;SHT31;67756;51.982;5.648;2024-03-23T03:48:21;11.0;65.5
78463;SHT31;67756;51.982;5.648;2024-03-23T03:50:51;11.0;65.4
78463;SHT31;67756;51.982;5.648;2024-03-23T03:53:20;11.0;65.4
78463;SHT31;67756;51.982;5.648;2024-03-23T03:55:48;10.9;65.6
78463;SHT31;67756;51.982;5.648;2024-03-23T03:58:19;10.9;65.3
78463;SHT31;67756;51.982;5.648;2024-03-23T04:00:47;10.9;65.0
78463;SHT31;67756;51.982;5.648;2024-03-23T04:03:16;10.8;64.9
78463;SHT31;67756;51.982;5.648;2024-03-23T04:05:50;10.8;65.6
78463;SHT31;67756;51.982;5.648;2024-03-23T04:08:19;10.8;66.0
78463;SHT31;67756;51.982;5.648;2024-03-23T04:10:48;10.7;65.4
78463;SHT31;67756;51.982;5.648;2024-03-23T04:13:17;10.7;64.9
78463;SHT31;67756;51.982;5.648;2024-03-23T04:15:45;10.7;64.4
78463;SHT31;67756;51.982;5.648;2024-03-23T04:18:14;10.6;64.6
78463;SHT31;67756;51.982;5.648;2024-03-23T04:20:43;10.6;65.5
78463;SHT31;67756;51.982;5.648;2024-03-23T04:23:12;10.6;65.3
78463;SHT31;67756;51.982;5.648;2024-03-23T04:25:40;10.5;64.9
78463;SHT31;67756;51.982;5.648;2024-03-23T04:28:09;10.5;64.5
78463;SHT31;67756;51.982;5.648;2024-03-23T04:30:37;10.5;64.2
78463;SHT31;67756;51.982;5.648;2024-03-23T04:33:08;10.4;64.5
78463;SHT31;67756;51.982;5.648;2024-03-23T04:35:37;10.4;64.3
78463;SHT31;67756;51.982;5.648;2024-03-23T04:38:06;10.4;64.3
78463;SHT31;67756;51.982;5.648;2024-03-23T04:40:35;10.4;64.4
78463;SHT31;67756;51.982;5.648;2024-03-23T04:43:04;10.4;64.2
78463;SHT31;67756;51.982;5.648;2024-03-23T04:45:32;10.4;63.8
78463;SHT31;67756;51.982;5.648;2024-03-23T04:48:01;10.4;63.8
78463;SHT31;67756;51.982;5.648;2024-03-23T04:50:29;10.4;63.0
78463;SHT31;67756;51.982;5.648;2024-03-23T04:52:58;10.4;62.8
78463;SHT31;67756;51.982;5.648;2024-03-23T04:55:26;10.4;62.8
78463;SHT31;67756;51.982;5.648;2024-03-23T04:57:55;10.4;62.9
78463;SHT31;67756;51.982;5.648;2024-03-23T05:00:23;10.3;63.1
78463;SHT31;67756;51.982;5.648;2024-03-23T05:02:52;10.3;63.3
78463;SHT31;67756;51.982;5.648;2024-03-23T05:05:21;10.2;62.8
78463;SHT31;67756;51.982;5.648;2024-03-23T05:07:49;10.2;63.2
78463;SHT31;67756;51.982;5.648;2024-03-23T05:10:19;10.1;63.3
78463;SHT31;67756;51.982;5.648;2024-03-23T05:12:47;10.1;63.8
78463;SHT31;67756;51.982;5.648;2024-03-23T05:15:16;10.1;63.5
78463;SHT31;67756;51.982;5.648;2024-03-23T05:17:45;10.0;63.5
78463;SHT31;67756;51.982;5.648;2024-03-23T05:20:13;10.0;63.7
78463;SHT31;67756;51.982;5.648;2024-03-23T05:22:43;10.0;63.8
78463;SHT31;67756;51.982;5.648;2024-03-23T05:25:12;10.0;63.9
78463;SHT31;67756;51.982;5.648;2024-03-23T05:27:42;10.0;63.9
78463;SHT31;67756;51.982;5.648;2024-03-23T05:30:14;10.0;63.7
78463;SHT31;67756;51.982;5.648;2024-03-23T05:32:43;10.0;63.6
78463;SHT31;67756;51.982;5.648;2024-03-23T05:35:12;10.0;63.4
78463;SHT31;67756;51.982;5.648;2024-03-23T05:37:40;10.0;63.0
78463;SHT31;67756;51.982;5.648;2024-03-23T05:40:10;10.0;63.3
78463;SHT31;67756;51.982;5.648;2024-03-23T05:42:41;10.0;63.4
78463;SHT31;67756;51.982;5.648;2024-03-23T05:45:12;10.0;63.0
78463;SHT31;67756;51.982;5.648;2024-03-23T05:47:45;10.0;62.9
78463;SHT31;67756;51.982;5.648;2024-03-23T05:50:14;10.0;62.5
78463;SHT31;67756;51.982;5.648;2024-03-23T05:52:44;10.0;62.3
78463;SHT31;67756;51.982;5.648;2024-03-23T05:55:12;10.0;62.4
78463;SHT31;67756;51.982;5.648;2024-03-23T05:57:43;10.1;62.3
78463;SHT31;67756;51.982;5.648;2024-03-23T06:00:17;10.1;62.7
78463;SHT31;67756;51.982;5.648;2024-03-23T06:02:46;10.1;62.9
78463;SHT31;67756;51.982;5.648;2024-03-23T06:05:15;10.1;62.5
78463;SHT31;67756;51.982;5.648;2024-03-23T06:07:43;10.1;62.7
78463;SHT31;67756;51.982;5.648;2024-03-23T06:10:12;10.1;63.1
78463;SHT31;67756;51.982;5.648;2024-03-23T06:12:43;10.1;63.2
78463;SHT31;67756;51.982;5.648;2024-03-23T06:15:14;10.2;63.7
78463;SHT31;67756;51.982;5.648;2024-03-23T06:17:47;10.2;63.3
78463;SHT31;67756;51.982;5.648;2024-03-23T06:20:16;10.3;63.1
78463;SHT31;67756;51.982;5.648;2024-03-23T06:22:45;10.3;62.2
78463;SHT31;67756;51.982;5.648;2024-03-23T06:25:13;10.3;62.5
78463;SHT31;67756;51.982;5.648;2024-03-23T06:27:43;10.2;62.1
78463;SHT31;67756;51.982;5.648;2024-03-23T06:30:13;10.2;62.3
78463;SHT31;67756;51.982;5.648;2024-03-23T06:32:42;10.2;62.8
78463;SHT31;67756;51.982;5.648;2024-03-23T06:35:13;10.2;62.9
78463;SHT31;67756;51.982;5.648;2024-03-23T06:37:41;10.2;62.6
78463;SHT31;67756;51.982;5.648;2024-03-23T06:40:12;10.2;62.7
78463;SHT31;67756;51.982;5.648;2024-03-23T06:42:42;10.1;62.7
78463;SHT31;67756;51.982;5.648;2024-03-23T06:45:13;10.1;62.8
78463;SHT31;67756;51.982;5.648;2024-03-23T06:47:41;10.1;63.6
78463;SHT31;67756;51.982;5.648;2024-03-23T06:50:10;10.1;63.3
78463;SHT31;67756;51.982;5.648;2024-03-23T06:52:41;10.1;63.6
78463;SHT31;67756;51.982;5.648;2024-03-23T06:55:09;10.1;63.5
78463;SHT31;67756;51.982;5.648;2024-03-23T06:57:40;10.1;64.0
78463;SHT31;67756;51.982;5.648;2024-03-23T07:00:09;10.1;62.9
78463;SHT31;67756;51.982;5.648;2024-03-23T07:02:38;10.1;63.4
78463;SHT31;67756;51.982;5.648;2024-03-23T07:05:07;10.1;63.5
78463;SHT31;67756;51.982;5.648;2024-03-23T07:07:38;10.1;64.3
78463;SHT31;67756;51.982;5.648;2024-03-23T07:10:09;10.2;64.3
78463;SHT31;67756;51.982;5.648;2024-03-23T07:12:38;10.2;64.2
78463;SHT31;67756;51.982;5.648;2024-03-23T07:15:07;10.3;63.7
78463;SHT31;67756;51.982;5.648;2024-03-23T07:17:36;10.3;64.6
78463;SHT31;67756;51.982;5.648;2024-03-23T07:20:06;10.4;64.9
78463;SHT31;67756;51.982;5.648;2024-03-23T07:22:36;10.5;64.1
78463;SHT31;67756;51.982;5.648;2024-03-23T07:25:06;10.5;63.8
78463;SHT31;67756;51.982;5.648;2024-03-23T07:27:36;10.6;63.2
78463;SHT31;67756;51.982;5.648;2024-03-23T07:30:05;10.6;63.7
78463;SHT31;67756;51.982;5.648;2024-03-23T07:32:35;10.6;63.7
78463;SHT31;67756;51.982;5.648;2024-03-23T07:35:04;10.6;63.2
78463;SHT31;67756;51.982;5.648;2024-03-23T07:37:35;10.6;63.4
78463;SHT31;67756;51.982;5.648;2024-03-23T07:40:03;10.6;64.1
78463;SHT31;67756;51.982;5.648;2024-03-23T07:42:35;10.6;63.5
78463;SHT31;67756;51.982;5.648;2024-03-23T07:45:04;10.6;63.7
78463;SHT31;67756;51.982;5.648;2024-03-23T07:47:33;10.7;64.1
78463;SHT31;67756;51.982;5.648;2024-03-23T07:50:06;10.7;63.3
78463;SHT31;67756;51.982;5.648;2024-03-23T07:52:35;10.8;63.5
78463;SHT31;67756;51.982;5.648;2024-03-23T07:55:06;10.8;62.5
78463;SHT31;67756;51.982;5.648;2024-03-23T07:57:35;10.9;62.9
78463;SHT31;67756;51.982;5.648;2024-03-23T08:00:16;10.9;63.7
78463;SHT31;67756;51.982;5.648;2024-03-23T08:02:45;11.0;62.9
78463;SHT31;67756;51.982;5.648;2024-03-23T08:05:13;11.1;63.0
78463;SHT31;67756;51.982;5.648;2024-03-23T08:07:43;11.1;61.5
78463;SHT31;67756;51.982;5.648;2024-03-23T08:10:14;11.2;62.0
78463;SHT31;67756;51.982;5.648;2024-03-23T08:12:47;11.2;61.1
78463;SHT31;67756;51.982;5.648;2024-03-23T08:15:18;11.3;60.8
78463;SHT31;67756;51.982;5.648;2024-03-23T08:17:46;11.3;60.3
78463;SHT31;67756;51.982;5.648;2024-03-23T08:20:15;11.3;60.2
78463;SHT31;67756;51.982;5.648;2024-03-23T08:22:43;11.4;59.8
78463;SHT31;67756;51.982;5.648;2024-03-23T08:25:14;11.4;59.5
78463;SHT31;67756;51.982;5.648;2024-03-23T08:27:44;11.5;58.1
78463;SHT31;67756;51.982;5.648;2024-03-23T08:30:13;11.5;57.0
78463;SHT31;67756;51.982;5.648;2024-03-23T08:32:42;11.5;59.0
78463;SHT31;67756;51.982;5.648;2024-03-23T08:35:12;11.5;57.0
78463;SHT31;67756;51.982;5.648;2024-03-23T08:37:40;11.5;57.6
78463;SHT31;67756;51.982;5.648;2024-03-23T08:40:10;11.4;57.1
78463;SHT31;67756;51.982;5.648;2024-03-23T08:42:38;11.4;57.0
78463;SHT31;67756;51.982;5.648;2024-03-23T08:45:08;11.4;58.1
78463;SHT31;67756;51.982;5.648;2024-03-23T08:47:37;11.4;59.2
78463;SHT31;67756;51.982;5.648;2024-03-23T08:50:12;11.4;60.8
78463;SHT31;67756;51.982;5.648;2024-03-23T08:52:40;11.4;60.4
78463;SHT31;67756;51.982;5.648;2024-03-23T08:55:09;11.3;60.8
78463;SHT31;67756;51.982;5.648;2024-03-23T08:57:38;11.2;60.5
78463;SHT31;67756;51.982;5.648;2024-03-23T09:00:17;11.0;60.5
78463;SHT31;67756;51.982;5.648;2024-03-23T09:02:47;11.0;61.0
78463;SHT31;67756;51.982;5.648;2024-03-23T09:05:17;10.8;60.9
78463;SHT31;67756;51.982;5.648;2024-03-23T09:07:45;10.5;62.3
78463;SHT31;67756;51.982;5.648;2024-03-23T09:10:14;10.3;62.7
78463;SHT31;67756;51.982;5.648;2024-03-23T09:12:42;10.1;66.6
78463;SHT31;67756;51.982;5.648;2024-03-23T09:15:11;10.0;68.1
78463;SHT31;67756;51.982;5.648;2024-03-23T09:17:39;9.9;65.8
78463;SHT31;67756;51.982;5.648;2024-03-23T09:20:09;9.8;65.6
78463;SHT31;67756;51.982;5.648;2024-03-23T09:22:37;9.8;66.3
78463;SHT31;67756;51.982;5.648;2024-03-23T09:25:09;9.8;66.8
78463;SHT31;67756;51.982;5.648;2024-03-23T09:27:37;9.8;66.2
78463;SHT31;67756;51.982;5.648;2024-03-23T09:30:06;9.8;67.1
78463;SHT31;67756;51.982;5.648;2024-03-23T09:32:36;9.9;65.5
78463;SHT31;67756;51.982;5.648;2024-03-23T09:35:05;9.9;66.1
78463;SHT31;67756;51.982;5.648;2024-03-23T09:37:34;10.0;64.2
78463;SHT31;67756;51.982;5.648;2024-03-23T09:40:03;10.1;63.2
78463;SHT31;67756;51.982;5.648;2024-03-23T09:42:33;10.2;63.3
78463;SHT31;67756;51.982;5.648;2024-03-23T09:45:02;10.3;64.3
78463;SHT31;67756;51.982;5.648;2024-03-23T09:47:34;10.4;61.9
78463;SHT31;67756;51.982;5.648;2024-03-23T09:50:03;10.6;59.3
78463;SHT31;67756;51.982;5.648;2024-03-23T09:52:33;10.8;60.0
78463;SHT31;67756;51.982;5.648;2024-03-23T09:55:01;10.9;57.7
78463;SHT31;67756;51.982;5.648;2024-03-23T09:57:30;10.9;57.8
78463;SHT31;67756;51.982;5.648;2024-03-23T09:59:58;10.9;59.0
78463;SHT31;67756;51.982;5.648;2024-03-23T10:02:30;10.9;58.5
78463;SHT31;67756;51.982;5.648;2024-03-23T10:04:59;10.9;58.2
78463;SHT31;67756;51.982;5.648;2024-03-23T10:07:27;11.0;57.3
78463;SHT31;67756;51.982;5.648;2024-03-23T10:09:58;11.1;59.0
78463;SHT31;67756;51.982;5.648;2024-03-23T10:12:32;11.2;59.6
78463;SHT31;67756;51.982;5.648;2024-03-23T10:15:01;11.3;58.6
78463;SHT31;67756;51.982;5.648;2024-03-23T10:17:29;11.3;60.5
78463;SHT31;67756;51.982;5.648;2024-03-23T10:19:57;10.9;57.9
78463;SHT31;67756;51.982;5.648;2024-03-23T10:22:28;10.2;61.9
78463;SHT31;67756;51.982;5.648;2024-03-23T10:25:08;9.8;66.7
78463;SHT31;67756;51.982;5.648;2024-03-23T10:27:37;9.7;69.3
78463;SHT31;67756;51.982;5.648;2024-03-23T10:30:11;9.7;68.5
78463;SHT31;67756;51.982;5.648;2024-03-23T10:32:41;9.8;67.8
78463;SHT31;67756;51.982;5.648;2024-03-23T10:35:16;9.9;66.4
78463;SHT31;67756;51.982;5.648;2024-03-23T10:37:48;10.1;64.9
78463;SHT31;67756;51.982;5.648;2024-03-23T10:40:18;10.4;63.9
78463;SHT31;67756;51.982;5.648;2024-03-23T10:42:46;10.7;60.0
78463;SHT31;67756;51.982;5.648;2024-03-23T10:45:17;11.0;57.8
78463;SHT31;67756;51.982;5.648;2024-03-23T10:47:46;11.3;58.9
78463;SHT31;67756;51.982;5.648;2024-03-23T10:50:15;11.6;58.6
78463;SHT31;67756;51.982;5.648;2024-03-23T10:52:47;11.9;58.5
78463;SHT31;67756;51.982;5.648;2024-03-23T10:55:19;12.2;56.2
78463;SHT31;67756;51.982;5.648;2024-03-23T10:57:50;12.5;53.9
78463;SHT31;67756;51.982;5.648;2024-03-23T11:00:20;12.6;54.3
78463;SHT31;67756;51.982;5.648;2024-03-23T11:02:51;12.7;55.3
78463;SHT31;67756;51.982;5.648;2024-03-23T11:05:32;12.8;54.1
78463;SHT31;67756;51.982;5.648;2024-03-23T11:08:01;12.9;53.9
78463;SHT31;67756;51.982;5.648;2024-03-23T11:10:31;13.0;52.5
78463;SHT31;67756;51.982;5.648;2024-03-23T11:13:23;13.0;52.2
78463;SHT31;67756;51.982;5.648;2024-03-23T11:15:52;13.1;52.7
78463;SHT31;67756;51.982;5.648;2024-03-23T11:18:22;13.3;50.5
78463;SHT31;67756;51.982;5.648;2024-03-23T11:20:50;13.4;48.4
78463;SHT31;67756;51.982;5.648;2024-03-23T11:23:29;13.4;48.3
78463;SHT31;67756;51.982;5.648;2024-03-23T11:25:57;13.4;48.0
78463;SHT31;67756;51.982;5.648;2024-03-23T11:28:27;13.3;49.0
78463;SHT31;67756;51.982;5.648;2024-03-23T11:30:55;13.3;52.6
78463;SHT31;67756;51.982;5.648;2024-03-23T11:33:24;13.5;52.0
78463;SHT31;67756;51.982;5.648;2024-03-23T11:35:54;13.9;49.7
78463;SHT31;67756;51.982;5.648;2024-03-23T11:38:23;14.3;48.7
78463;SHT31;67756;51.982;5.648;2024-03-23T11:40:52;14.6;45.0
78463;SHT31;67756;51.982;5.648;2024-03-23T11:43:20;14.7;45.7
78463;SHT31;67756;51.982;5.648;2024-03-23T11:45:52;14.7;45.6
78463;SHT31;67756;51.982;5.648;2024-03-23T11:48:22;14.6;47.1
78463;SHT31;67756;51.982;5.648;2024-03-23T11:50:55;14.4;46.7
78463;SHT31;67756;51.982;5.648;2024-03-23T11:53:26;14.3;46.9
78463;SHT31;67756;51.982;5.648;2024-03-23T11:55:58;14.1;45.4
78463;SHT31;67756;51.982;5.648;2024-03-23T11:58:27;14.0;47.4
78463;SHT31;67756;51.982;5.648;2024-03-23T12:00:58;13.7;48.2
78463;SHT31;67756;51.982;5.648;2024-03-23T12:03:29;13.4;47.0
78463;SHT31;67756;51.982;5.648;2024-03-23T12:06:01;13.2;47.0
78463;SHT31;67756;51.982;5.648;2024-03-23T12:08:32;13.1;47.7
78463;SHT31;67756;51.982;5.648;2024-03-23T12:11:08;13.0;48.8
78463;SHT31;67756;51.982;5.648;2024-03-23T12:13:39;13.0;47.5
78463;SHT31;67756;51.982;5.648;2024-03-23T12:16:13;13.0;48.9
78463;SHT31;67756;51.982;5.648;2024-03-23T12:18:43;13.0;49.2
78463;SHT31;67756;51.982;5.648;2024-03-23T12:21:13;13.3;49.0
78463;SHT31;67756;51.982;5.648;2024-03-23T12:23:41;13.9;48.4
78463;SHT31;67756;51.982;5.648;2024-03-23T12:26:11;14.8;45.7
78463;SHT31;67756;51.982;5.648;2024-03-23T12:28:40;15.7;44.0
78463;SHT31;67756;51.982;5.648;2024-03-23T12:31:09;16.4;41.4
78463;SHT31;67756;51.982;5.648;2024-03-23T12:33:38;16.6;39.5
78463;SHT31;67756;51.982;5.648;2024-03-23T12:36:07;16.6;39.9
78463;SHT31;67756;51.982;5.648;2024-03-23T12:38:36;16.3;44.2
78463;SHT31;67756;51.982;5.648;2024-03-23T12:41:04;15.5;47.7
78463;SHT31;67756;51.982;5.648;2024-03-23T12:43:33;14.7;49.2
78463;SHT31;67756;51.982;5.648;2024-03-23T12:46:07;14.4;49.7
78463;SHT31;67756;51.982;5.648;2024-03-23T12:48:38;14.4;51.1
78463;SHT31;67756;51.982;5.648;2024-03-23T12:51:08;14.6;47.9
78463;SHT31;67756;51.982;5.648;2024-03-23T12:53:36;14.9;48.0
78463;SHT31;67756;51.982;5.648;2024-03-23T12:56:05;15.5;46.0
78463;SHT31;67756;51.982;5.648;2024-03-23T12:58:34;16.3;43.4
78463;SHT31;67756;51.982;5.648;2024-03-23T13:01:04;17.0;41.2
78463;SHT31;67756;51.982;5.648;2024-03-23T13:03:33;17.3;40.0
78463;SHT31;67756;51.982;5.648;2024-03-23T13:06:02;17.2;37.8
78463;SHT31;67756;51.982;5.648;2024-03-23T13:08:37;17.0;38.8
78463;SHT31;67756;51.982;5.648;2024-03-23T13:11:10;16.7;40.2
78463;SHT31;67756;51.982;5.648;2024-03-23T13:13:42;16.5;39.3
78463;SHT31;67756;51.982;5.648;2024-03-23T13:16:11;16.2;39.3
78463;SHT31;67756;51.982;5.648;2024-03-23T13:18:39;16.0;40.8
78463;SHT31;67756;51.982;5.648;2024-03-23T13:21:08;15.7;41.9
78463;SHT31;67756;51.982;5.648;2024-03-23T13:23:36;15.5;41.4
78463;SHT31;67756;51.982;5.648;2024-03-23T13:26:09;15.4;42.5
78463;SHT31;67756;51.982;5.648;2024-03-23T13:28:38;15.4;40.9
78463;SHT31;67756;51.982;5.648;2024-03-23T13:31:10;15.3;42.6
78463;SHT31;67756;51.982;5.648;2024-03-23T13:33:39;15.1;43.3
78463;SHT31;67756;51.982;5.648;2024-03-23T13:36:09;14.9;43.2
78463;SHT31;67756;51.982;5.648;2024-03-23T13:38:38;14.7;42.5
78463;SHT31;67756;51.982;5.648;2024-03-23T13:41:09;14.5;44.1
78463;SHT31;67756;51.982;5.648;2024-03-23T13:43:40;14.3;43.7
78463;SHT31;67756;51.982;5.648;2024-03-23T13:46:09;14.1;45.0
78463;SHT31;67756;51.982;5.648;2024-03-23T13:48:40;14.0;43.7
78463;SHT31;67756;51.982;5.648;2024-03-23T13:51:08;13.9;44.7
78463;SHT31;67756;51.982;5.648;2024-03-23T13:53:37;13.8;43.4
78463;SHT31;67756;51.982;5.648;2024-03-23T13:56:09;13.7;43.9
78463;SHT31;67756;51.982;5.648;2024-03-23T13:58:38;13.6;49.8
78463;SHT31;67756;51.982;5.648;2024-03-23T14:01:11;13.6;50.5
78463;SHT31;67756;51.982;5.648;2024-03-23T14:03:40;13.9;49.8
78463;SHT31;67756;51.982;5.648;2024-03-23T14:06:10;14.2;47.4
78463;SHT31;67756;51.982;5.648;2024-03-23T14:08:39;14.3;44.5
78463;SHT31;67756;51.982;5.648;2024-03-23T14:11:09;14.3;45.8
78463;SHT31;67756;51.982;5.648;2024-03-23T14:13:38;14.3;46.2
78463;SHT31;67756;51.982;5.648;2024-03-23T14:16:07;14.2;45.3
78463;SHT31;67756;51.982;5.648;2024-03-23T14:18:36;14.1;46.5
78463;SHT31;67756;51.982;5.648;2024-03-23T14:21:05;14.0;46.5
78463;SHT31;67756;51.982;5.648;2024-03-23T14:23:33;13.7;49.0
78463;SHT31;67756;51.982;5.648;2024-03-23T14:26:03;13.3;51.0
78463;SHT31;67756;51.982;5.648;2024-03-23T14:28:31;12.9;51.1
78463;SHT31;67756;51.982;5.648;2024-03-23T14:31:00;12.6;53.4
78463;SHT31;67756;51.982;5.648;2024-03-23T14:33:33;12.5;54.0
78463;SHT31;67756;51.982;5.648;2024-03-23T14:36:02;12.6;55.3
78463;SHT31;67756;51.982;5.648;2024-03-23T14:38:30;13.0;55.3
78463;SHT31;67756;51.982;5.648;2024-03-23T14:41:01;13.7;51.4
78463;SHT31;67756;51.982;5.648;2024-03-23T14:43:31;14.7;49.5
78463;SHT31;67756;51.982;5.648;2024-03-23T14:46:09;15.5;46.3
78463;SHT31;67756;51.982;5.648;2024-03-23T14:48:40;15.9;44.7
78463;SHT31;67756;51.982;5.648;2024-03-23T14:51:09;16.0;44.0
78463;SHT31;67756;51.982;5.648;2024-03-23T14:53:39;16.1;43.5
78463;SHT31;67756;51.982;5.648;2024-03-23T14:56:09;16.1;42.9
78463;SHT31;67756;51.982;5.648;2024-03-23T14:58:41;16.0;43.0
78463;SHT31;67756;51.982;5.648;2024-03-23T15:01:12;15.9;43.7
78463;SHT31;67756;51.982;5.648;2024-03-23T15:03:40;16.0;44.6
78463;SHT31;67756;51.982;5.648;2024-03-23T15:06:09;16.1;44.1
78463;SHT31;67756;51.982;5.648;2024-03-23T15:08:38;16.2;44.5
78463;SHT31;67756;51.982;5.648;2024-03-23T15:11:06;16.4;43.3
78463;SHT31;67756;51.982;5.648;2024-03-23T15:13:36;16.5;42.8
78463;SHT31;67756;51.982;5.648;2024-03-23T15:16:06;16.8;42.3
78463;SHT31;67756;51.982;5.648;2024-03-23T15:18:35;17.0;42.0
78463;SHT31;67756;51.982;5.648;2024-03-23T15:21:04;17.2;40.8
78463;SHT31;67756;51.982;5.648;2024-03-23T15:23:36;17.4;40.5
78463;SHT31;67756;51.982;5.648;2024-03-23T15:26:05;17.5;39.6
78463;SHT31;67756;51.982;5.648;2024-03-23T15:28:34;17.5;39.5
78463;SHT31;67756;51.982;5.648;2024-03-23T15:31:14;17.7;39.0
78463;SHT31;67756;51.982;5.648;2024-03-23T15:33:42;17.9;36.3
78463;SHT31;67756;51.982;5.648;2024-03-23T15:36:11;18.0;35.8
78463;SHT31;67756;51.982;5.648;2024-03-23T15:38:40;18.0;36.3
78463;SHT31;67756;51.982;5.648;2024-03-23T15:41:09;18.0;35.7
78463;SHT31;67756;51.982;5.648;2024-03-23T15:43:38;18.0;35.7
78463;SHT31;67756;51.982;5.648;2024-03-23T15:46:08;18.0;36.4
78463;SHT31;67756;51.982;5.648;2024-03-23T15:48:37;17.9;36.8
78463;SHT31;67756;51.982;5.648;2024-03-23T15:51:06;17.6;37.0
78463;SHT31;67756;51.982;5.648;2024-03-23T15:53:36;17.4;37.6
78463;SHT31;67756;51.982;5.648;2024-03-23T15:56:05;17.3;38.5
78463;SHT31;67756;51.982;5.648;2024-03-23T15:58:35;17.2;37.9
78463;SHT31;67756;51.982;5.648;2024-03-23T16:01:05;17.0;38.3
78463;SHT31;67756;51.982;5.648;2024-03-23T16:03:35;16.6;39.2
78463;SHT31;67756;51.982;5.648;2024-03-23T16:06:05;16.3;39.8
78463;SHT31;67756;51.982;5.648;2024-03-23T16:08:35;15.8;40.0
78463;SHT31;67756;51.982;5.648;2024-03-23T16:11:06;15.4;41.8
78463;SHT31;67756;51.982;5.648;2024-03-23T16:13:35;15.1;43.3
78463;SHT31;67756;51.982;5.648;2024-03-23T16:16:06;14.9;43.3
78463;SHT31;67756;51.982;5.648;2024-03-23T16:18:37;14.8;43.8
78463;SHT31;67756;51.982;5.648;2024-03-23T16:21:07;14.7;44.8
78463;SHT31;67756;51.982;5.648;2024-03-23T16:23:37;14.5;45.1
78463;SHT31;67756;51.982;5.648;2024-03-23T16:26:09;14.4;45.1
78463;SHT31;67756;51.982;5.648;2024-03-23T16:28:40;14.3;45.5
78463;SHT31;67756;51.982;5.648;2024-03-23T16:31:11;14.3;45.8
78463;SHT31;67756;51.982;5.648;2024-03-23T16:33:40;14.1;45.9
78463;SHT31;67756;51.982;5.648;2024-03-23T16:36:10;14.0;46.3
78463;SHT31;67756;51.982;5.648;2024-03-23T16:38:41;13.8;46.4
78463;SHT31;67756;51.982;5.648;2024-03-23T16:41:10;13.7;47.2
78463;SHT31;67756;51.982;5.648;2024-03-23T16:43:42;13.5;47.9
78463;SHT31;67756;51.982;5.648;2024-03-23T16:46:12;13.4;47.1
78463;SHT31;67756;51.982;5.648;2024-03-23T16:48:42;13.2;47.8
78463;SHT31;67756;51.982;5.648;2024-03-23T16:51:12;13.0;47.5
78463;SHT31;67756;51.982;5.648;2024-03-23T16:53:41;12.9;47.6
78463;SHT31;67756;51.982;5.648;2024-03-23T16:56:11;12.8;48.0
78463;SHT31;67756;51.982;5.648;2024-03-23T16:58:40;12.6;48.8
78463;SHT31;67756;51.982;5.648;2024-03-23T17:01:10;12.6;49.0
78463;SHT31;67756;51.982;5.648;2024-03-23T17:03:46;12.5;48.8
78463;SHT31;67756;51.982;5.648;2024-03-23T17:06:16;12.5;50.1
78463;SHT31;67756;51.982;5.648;2024-03-23T17:08:47;12.5;49.5
78463;SHT31;67756;51.982;5.648;2024-03-23T17:11:17;12.5;50.7